createdAt,value
2023-04-18T00:00:53.201Z,10.20
2023-04-18T00:03:30.851Z,10.20
2023-04-18T00:06:07.819Z,10.20
2023-04-18T00:08:45.887Z,10.20
2023-04-18T00:11:23.648Z,10.20
2023-04-18T00:14:03.674Z,10.20
2023-04-18T00:16:42.828Z,10.20
2023-04-18T00:19:19.627Z,10.20
2023-04-18T00:22:00.941Z,10.20
2023-04-18T00:24:40.176Z,10.10
2023-04-18T00:27:16.978Z,10.20
2023-04-18T00:29:52.843Z,10.20
2023-04-18T00:32:29.294Z,10.10
2023-04-18T00:35:08.509Z,10.10
2023-04-18T00:37:45.801Z,10.10
2023-04-18T00:40:28.171Z,10.10
2023-04-18T00:43:03.961Z,10.10
2023-04-18T00:45:39.228Z,10.00
2023-04-18T00:48:17.235Z,10.00
2023-04-18T00:50:53.610Z,10.10
2023-04-18T00:53:32.018Z,10.00
2023-04-18T00:56:14.072Z,10.00
2023-04-18T00:58:50.285Z,10.00
2023-04-18T01:01:31.242Z,10.00
2023-04-18T01:04:08.788Z,10.00
2023-04-18T01:06:46.263Z,10.00
2023-04-18T01:09:22.434Z,10.00
2023-04-18T01:12:01.117Z,10.00
2023-04-18T01:14:37.253Z,10.00
2023-04-18T01:17:14.020Z,10.00
2023-04-18T01:19:51.470Z,9.90
2023-04-18T01:22:29.603Z,9.90
2023-04-18T01:25:20.251Z,9.90
2023-04-18T01:27:54.225Z,9.90
2023-04-18T01:30:31.184Z,9.90
2023-04-18T01:33:07.340Z,9.90
2023-04-18T01:35:45.667Z,9.90
2023-04-18T01:38:27.587Z,9.90
2023-04-18T01:41:09.801Z,9.90
2023-04-18T01:43:48.118Z,9.90
2023-04-18T01:46:26.410Z,9.80
2023-04-18T01:49:06.495Z,9.80
2023-04-18T01:51:43.526Z,9.80
2023-04-18T01:54:25.997Z,9.80
2023-04-18T01:57:06.443Z,9.80
2023-04-18T01:59:42.583Z,9.80
2023-04-18T02:02:22.045Z,9.80
2023-04-18T02:05:00.426Z,9.80
2023-04-18T02:07:34.706Z,9.80
2023-04-18T02:10:13.683Z,9.80
2023-04-18T02:12:57.085Z,9.80
2023-04-18T02:15:37.099Z,9.80
2023-04-18T02:18:17.844Z,9.80
2023-04-18T02:20:54.909Z,9.80
2023-04-18T02:23:34.060Z,9.80
2023-04-18T02:26:11.330Z,9.70
2023-04-18T02:28:45.561Z,9.70
2023-04-18T02:31:29.633Z,9.70
2023-04-18T02:34:04.219Z,9.70
2023-04-18T02:36:43.576Z,9.70
2023-04-18T02:39:19.398Z,9.70
2023-04-18T02:41:57.947Z,9.70
2023-04-18T02:44:35.064Z,9.70
2023-04-18T02:47:14.771Z,9.70
2023-04-18T02:49:54.378Z,9.70
2023-04-18T02:52:30.848Z,9.70
2023-04-18T02:55:08.819Z,9.70
2023-04-18T02:57:50.102Z,9.60
2023-04-18T03:00:44.416Z,9.60
2023-04-18T03:03:32.294Z,9.60
2023-04-18T03:06:27.828Z,9.60
2023-04-18T03:09:07.789Z,9.70
2023-04-18T03:11:45.754Z,9.60
2023-04-18T03:14:23.054Z,9.60
2023-04-18T03:17:04.894Z,9.60
2023-04-18T03:19:50.401Z,9.60
2023-04-18T03:22:31.940Z,9.60
2023-04-18T03:25:11.908Z,9.60
2023-04-18T03:28:00.622Z,9.60
2023-04-18T03:30:39.625Z,9.60
2023-04-18T03:33:18.607Z,9.60
2023-04-18T03:35:56.868Z,9.50
2023-04-18T03:38:35.655Z,9.60
2023-04-18T03:41:11.591Z,9.50
2023-04-18T03:43:48.069Z,9.50
2023-04-18T03:46:23.292Z,9.50
2023-04-18T03:49:03.785Z,9.50
2023-04-18T03:51:48.086Z,9.50
2023-04-18T03:54:28.604Z,9.50
2023-04-18T03:57:04.531Z,9.50
2023-04-18T03:59:43.268Z,9.50
2023-04-18T04:02:18.360Z,9.50
2023-04-18T04:04:54.419Z,9.50
2023-04-18T04:07:34.462Z,9.50
2023-04-18T04:10:18.051Z,9.40
2023-04-18T04:12:54.517Z,9.50
2023-04-18T04:15:33.959Z,9.40
2023-04-18T04:18:19.523Z,9.40
2023-04-18T04:20:56.663Z,9.40
2023-04-18T04:23:52.630Z,9.40
2023-04-18T04:26:44.718Z,9.40
2023-04-18T04:29:32.336Z,9.40
2023-04-18T04:32:09.459Z,9.30
2023-04-18T04:34:48.836Z,9.40
2023-04-18T04:37:24.225Z,9.30
2023-04-18T04:40:16.698Z,9.30
2023-04-18T04:43:14.391Z,9.30
2023-04-18T04:45:57.835Z,9.30
2023-04-18T04:48:35.310Z,9.30
2023-04-18T04:51:11.461Z,9.40
2023-04-18T04:53:48.521Z,9.30
2023-04-18T04:56:19.338Z,9.30
2023-04-18T04:58:57.548Z,9.30
2023-04-18T05:01:42.770Z,9.40
2023-04-18T05:04:21.138Z,9.40
2023-04-18T05:06:58.296Z,9.40
2023-04-18T05:09:36.160Z,9.40
2023-04-18T05:12:14.918Z,9.40
2023-04-18T05:14:52.347Z,9.40
2023-04-18T05:17:31.552Z,9.40
2023-04-18T05:20:10.632Z,9.40
2023-04-18T05:22:52.106Z,9.40
2023-04-18T05:25:38.355Z,9.40
2023-04-18T05:28:15.912Z,9.40
2023-04-18T05:31:01.568Z,9.40
2023-04-18T05:33:43.068Z,9.40
2023-04-18T05:36:17.654Z,9.40
2023-04-18T05:38:54.405Z,9.40
2023-04-18T05:41:31.490Z,9.40
2023-04-18T05:44:09.449Z,9.40
2023-04-18T05:46:47.627Z,9.40
2023-04-18T05:49:27.414Z,9.50
2023-04-18T05:52:08.411Z,9.50
2023-04-18T05:54:46.722Z,9.40
2023-04-18T05:57:22.667Z,9.40
2023-04-18T05:59:59.281Z,9.50
2023-04-18T06:02:35.598Z,9.50
2023-04-18T06:05:13.426Z,9.50
2023-04-18T06:07:51.909Z,9.50
2023-04-18T06:10:31.340Z,9.50
2023-04-18T06:13:05.882Z,9.50
2023-04-18T06:15:41.743Z,9.50
2023-04-18T06:18:18.953Z,9.60
2023-04-18T06:20:53.806Z,9.60
2023-04-18T06:23:34.631Z,9.60
2023-04-18T06:26:10.363Z,9.60
2023-04-18T06:28:50.725Z,9.60
2023-04-18T06:31:28.135Z,9.60
2023-04-18T06:34:06.200Z,9.60
2023-04-18T06:36:43.524Z,9.60
2023-04-18T06:39:25.086Z,9.60
2023-04-18T06:42:02.777Z,9.60
2023-04-18T06:44:41.104Z,9.60
2023-04-18T06:47:19.830Z,9.60
2023-04-18T06:49:57.321Z,9.50
2023-04-18T06:52:35.880Z,9.60
2023-04-18T06:55:17.207Z,9.70
2023-04-18T06:57:54.128Z,9.70
2023-04-18T07:00:30.816Z,9.70
2023-04-18T07:03:11.334Z,9.70
2023-04-18T07:05:48.090Z,9.70
2023-04-18T07:08:24.292Z,9.80
2023-04-18T07:11:03.114Z,9.80
2023-04-18T07:13:39.549Z,9.80
2023-04-18T07:16:19.029Z,9.80
2023-04-18T07:18:55.825Z,9.80
2023-04-18T07:21:34.817Z,9.80
2023-04-18T07:24:13.175Z,9.80
2023-04-18T07:26:55.327Z,9.90
2023-04-18T07:29:34.485Z,9.90
2023-04-18T07:32:11.158Z,9.90
2023-04-18T07:34:49.172Z,9.90
2023-04-18T07:37:27.483Z,9.90
2023-04-18T07:40:06.285Z,10.00
2023-04-18T07:42:50.637Z,10.00
2023-04-18T07:45:27.459Z,10.00
2023-04-18T07:48:10.209Z,10.10
2023-04-18T07:50:46.329Z,10.00
2023-04-18T07:53:23.165Z,10.00
2023-04-18T07:56:00.909Z,10.10
2023-04-18T07:58:43.141Z,10.10
2023-04-18T08:01:21.724Z,10.10
2023-04-18T08:04:02.459Z,10.10
2023-04-18T08:06:39.809Z,10.10
2023-04-18T08:09:21.088Z,10.20
2023-04-18T08:12:00.121Z,10.20
2023-04-18T08:14:40.913Z,10.20
2023-04-18T08:17:19.999Z,10.30
2023-04-18T08:19:55.601Z,10.30
2023-04-18T08:22:33.277Z,10.40
2023-04-18T08:25:12.847Z,10.40
2023-04-18T08:27:57.211Z,10.50
2023-04-18T08:30:38.075Z,10.50
2023-04-18T08:33:14.589Z,10.50
2023-04-18T08:35:55.789Z,10.50
2023-04-18T08:38:31.974Z,10.60
2023-04-18T08:41:11.284Z,10.60
2023-04-18T08:43:48.416Z,10.50
2023-04-18T08:46:31.040Z,10.60
2023-04-18T08:49:09.662Z,10.50
2023-04-18T08:51:48.478Z,10.50
2023-04-18T08:54:27.306Z,10.50
2023-04-18T08:57:14.502Z,10.60
2023-04-18T08:59:54.569Z,10.60
2023-04-18T09:02:43.321Z,10.60
2023-04-18T09:05:20.868Z,10.60
2023-04-18T09:07:57.751Z,10.60
2023-04-18T09:10:35.711Z,10.60
2023-04-18T09:13:15.730Z,10.60
2023-04-18T09:16:03.036Z,10.60
2023-04-18T09:18:44.863Z,10.70
2023-04-18T09:21:28.076Z,10.60
2023-04-18T09:24:24.102Z,10.70
2023-04-18T09:27:02.096Z,10.70
2023-04-18T09:29:50.913Z,10.70
2023-04-18T09:32:31.319Z,10.70
2023-04-18T09:35:10.867Z,10.80
2023-04-18T09:37:46.933Z,10.80
2023-04-18T09:40:24.930Z,10.90
2023-04-18T09:43:00.109Z,10.90
2023-04-18T09:45:45.604Z,11.00
2023-04-18T09:48:27.878Z,11.00
2023-04-18T09:51:10.273Z,11.10
2023-04-18T09:53:53.579Z,11.10
2023-04-18T09:56:29.658Z,11.10
2023-04-18T09:59:07.898Z,11.20
2023-04-18T10:01:48.827Z,11.20
2023-04-18T10:04:26.890Z,11.20
2023-04-18T10:07:08.804Z,11.30
2023-04-18T10:09:46.524Z,11.30
2023-04-18T10:12:24.150Z,11.40
2023-04-18T10:15:07.808Z,11.40
2023-04-18T10:18:05.101Z,11.50
2023-04-18T10:20:42.633Z,11.50
2023-04-18T10:23:56.726Z,11.50
2023-04-18T10:26:54.373Z,11.60
2023-04-18T10:29:53.131Z,11.50
2023-04-18T10:32:31.574Z,11.60
2023-04-18T10:35:11.385Z,11.60
2023-04-18T10:37:54.036Z,11.70
2023-04-18T10:40:39.478Z,11.80
2023-04-18T10:43:16.307Z,11.80
2023-04-18T10:46:31.158Z,11.80
2023-04-18T10:49:21.319Z,11.80
2023-04-18T10:51:58.975Z,11.90
2023-04-18T10:54:36.843Z,11.90
2023-04-18T10:57:15.769Z,11.90
2023-04-18T10:59:49.675Z,11.90
2023-04-18T11:02:34.089Z,12.00
2023-04-18T11:05:11.792Z,12.00
2023-04-18T11:07:49.303Z,12.00
2023-04-18T11:10:26.887Z,12.00
2023-04-18T11:13:05.934Z,12.00
2023-04-18T11:15:42.509Z,12.00
2023-04-18T11:18:22.163Z,12.00
2023-04-18T11:20:59.353Z,12.10
2023-04-18T11:23:35.831Z,12.00
2023-04-18T11:26:18.267Z,12.10
2023-04-18T11:28:57.750Z,12.10
2023-04-18T11:31:36.872Z,12.00
2023-04-18T11:34:16.904Z,12.10
2023-04-18T11:36:56.931Z,12.10
2023-04-18T11:39:35.763Z,12.00
2023-04-18T11:42:17.646Z,12.00
2023-04-18T11:44:54.084Z,12.00
2023-04-18T11:47:32.072Z,12.00
2023-04-18T11:50:07.235Z,12.00
2023-04-18T11:52:46.501Z,12.10
2023-04-18T11:55:24.988Z,12.20
2023-04-18T11:58:01.691Z,12.20
2023-04-18T12:00:38.900Z,12.30
2023-04-18T12:03:20.525Z,12.50
2023-04-18T12:06:03.512Z,12.60
2023-04-18T12:08:48.508Z,12.80
2023-04-18T12:11:25.733Z,12.80
2023-04-18T12:14:04.025Z,12.90
2023-04-18T12:16:40.681Z,13.00
2023-04-18T12:19:18.467Z,13.00
2023-04-18T12:22:02.954Z,13.10
2023-04-18T12:24:42.858Z,13.20
2023-04-18T12:27:20.874Z,13.20
2023-04-18T12:30:00.058Z,13.30
2023-04-18T12:32:39.395Z,13.30
2023-04-18T12:35:17.508Z,13.40
2023-04-18T12:37:55.783Z,13.40
2023-04-18T12:40:36.863Z,13.30
2023-04-18T12:43:14.488Z,13.30
2023-04-18T12:45:52.485Z,13.30
2023-04-18T12:48:32.004Z,13.40
2023-04-18T12:51:08.935Z,13.50
2023-04-18T12:53:46.935Z,13.60
2023-04-18T12:56:29.900Z,13.60
2023-04-18T12:59:07.077Z,13.60
2023-04-18T13:01:44.326Z,13.60
2023-04-18T13:04:22.319Z,13.60
2023-04-18T13:06:58.458Z,13.60
2023-04-18T13:09:35.837Z,13.60
2023-04-18T13:12:17.403Z,13.60
2023-04-18T13:14:54.203Z,13.70
2023-04-18T13:17:35.394Z,13.70
2023-04-18T13:20:16.078Z,13.80
2023-04-18T13:22:53.846Z,13.80
2023-04-18T13:25:32.087Z,13.90
2023-04-18T13:28:14.911Z,13.90
2023-04-18T13:30:54.857Z,14.00
2023-04-18T13:33:33.675Z,14.00
2023-04-18T13:36:19.389Z,14.00
2023-04-18T13:39:06.870Z,14.00
2023-04-18T13:41:47.418Z,14.10
2023-04-18T13:44:31.195Z,14.00
2023-04-18T13:47:09.084Z,14.00
2023-04-18T13:49:46.411Z,14.00
2023-04-18T13:52:23.762Z,14.00
2023-04-18T13:55:08.460Z,14.00
2023-04-18T13:57:44.737Z,14.00
2023-04-18T14:00:30.961Z,14.00
2023-04-18T14:03:12.675Z,14.10
2023-04-18T14:06:01.173Z,14.10
2023-04-18T14:11:41.794Z,14.20
2023-04-18T14:14:23.848Z,14.20
2023-04-18T14:17:15.156Z,14.30
2023-04-18T14:20:12.857Z,14.40
2023-04-18T14:22:52.919Z,14.40
2023-04-18T14:25:31.730Z,14.40
2023-04-18T14:28:13.993Z,14.50
2023-04-18T14:30:53.496Z,14.50
2023-04-18T14:33:43.671Z,14.50
2023-04-18T14:36:23.288Z,14.50
2023-04-18T14:39:02.686Z,14.40
2023-04-18T14:41:40.171Z,14.50
2023-04-18T14:44:19.060Z,14.40
2023-04-18T14:46:59.036Z,14.40
2023-04-18T14:49:48.853Z,14.50
2023-04-18T14:52:28.975Z,14.60
2023-04-18T14:55:07.853Z,14.70
2023-04-18T14:57:46.888Z,14.80
2023-04-18T15:00:26.091Z,14.70
2023-04-18T15:03:04.138Z,14.80
2023-04-18T15:05:49.616Z,14.80
2023-04-18T15:08:26.595Z,14.80
2023-04-18T15:11:05.788Z,14.90
2023-04-18T15:13:42.359Z,14.80
2023-04-18T15:16:18.763Z,14.80
2023-04-18T15:19:00.939Z,14.70
2023-04-18T15:21:39.499Z,14.60
2023-04-18T15:24:17.977Z,14.50
2023-04-18T15:26:53.351Z,14.50
2023-04-18T15:29:30.887Z,14.70
2023-04-18T15:32:08.252Z,14.90
2023-04-18T15:34:46.269Z,15.20
2023-04-18T15:37:27.278Z,15.30
2023-04-18T15:40:08.602Z,15.40
2023-04-18T15:42:50.137Z,15.20
2023-04-18T15:45:28.569Z,15.00
2023-04-18T15:48:04.746Z,14.90
2023-04-18T15:50:43.481Z,14.70
2023-04-18T15:53:26.442Z,14.60
2023-04-18T15:56:09.407Z,14.50
2023-04-18T15:58:48.677Z,14.40
2023-04-18T16:17:19.061Z,14.10
2023-04-18T16:19:59.119Z,14.00
2023-04-18T16:22:38.472Z,14.00
2023-04-18T16:25:15.279Z,13.90
2023-04-18T16:27:52.708Z,13.90
2023-04-18T16:30:31.154Z,13.90
2023-04-18T16:33:26.314Z,13.80
2023-04-18T16:36:06.333Z,13.80
2023-04-18T16:38:44.472Z,13.70
2023-04-18T16:41:21.929Z,13.70
2023-04-18T16:44:01.085Z,13.60
2023-04-18T16:46:39.546Z,13.60
2023-04-18T16:49:21.186Z,13.60
2023-04-18T16:51:58.202Z,13.60
2023-04-18T16:54:37.411Z,13.50
2023-04-18T16:57:18.567Z,13.50
2023-04-18T16:59:56.776Z,13.50
2023-04-18T17:02:35.304Z,13.50
2023-04-18T17:05:20.389Z,13.40
2023-04-18T17:08:04.273Z,13.40
2023-04-18T17:10:42.176Z,13.40
2023-04-18T17:13:27.597Z,13.40
2023-04-18T17:16:07.162Z,13.30
2023-04-18T17:18:41.923Z,13.30
2023-04-18T17:21:26.240Z,13.30
2023-04-18T17:24:07.638Z,13.30
2023-04-18T17:26:48.639Z,13.30
2023-04-18T17:29:28.391Z,13.30
2023-04-18T17:32:05.580Z,13.30
2023-04-18T17:34:46.325Z,13.30
2023-04-18T17:37:27.439Z,13.20
2023-04-18T17:40:12.910Z,13.20
2023-04-18T17:42:59.251Z,13.10
2023-04-18T17:45:42.859Z,13.10
2023-04-18T17:48:22.887Z,13.10
2023-04-18T17:51:12.677Z,13.00
2023-04-18T17:54:00.621Z,13.00
2023-04-18T17:59:47.373Z,12.90
2023-04-18T18:24:27.497Z,12.70
2023-04-18T18:27:07.657Z,12.60
2023-04-18T18:29:46.281Z,12.70
2023-04-18T18:32:25.468Z,12.70
2023-04-18T18:35:07.051Z,12.70
2023-04-18T18:37:42.444Z,12.70
2023-04-18T18:40:24.642Z,12.70
2023-04-18T18:43:02.252Z,12.60
2023-04-18T18:45:42.263Z,12.60
2023-04-18T18:48:21.533Z,12.60
2023-04-18T18:51:00.206Z,12.60
2023-04-18T18:53:40.115Z,12.60
2023-04-18T18:56:21.248Z,12.60
2023-04-18T18:58:58.821Z,12.60
2023-04-18T19:01:36.872Z,12.50
2023-04-18T19:04:28.910Z,12.60
2023-04-18T19:16:38.737Z,12.50
2023-04-18T19:19:18.066Z,12.50
2023-04-18T19:21:55.311Z,12.50
2023-04-18T19:24:35.681Z,12.50
2023-04-18T19:27:18.408Z,12.50
2023-04-18T19:29:58.328Z,12.50
2023-04-18T19:32:50.836Z,12.50
2023-04-18T19:35:32.754Z,12.50
2023-04-18T19:38:11.330Z,12.40
2023-04-18T19:40:53.288Z,12.40
2023-04-18T19:43:28.069Z,12.40
2023-04-18T19:46:11.203Z,12.40
2023-04-18T19:48:50.482Z,12.40
2023-04-18T19:54:36.674Z,12.30
2023-04-18T19:57:19.696Z,12.30
2023-04-18T20:00:03.059Z,12.30
2023-04-18T20:02:52.398Z,12.30
2023-04-18T20:05:29.266Z,12.30
2023-04-18T20:08:10.250Z,12.20
2023-04-18T20:10:58.051Z,12.20
2023-04-18T20:13:43.587Z,12.20
2023-04-18T20:16:32.161Z,12.30
2023-04-18T20:22:09.823Z,12.20
2023-04-18T20:24:50.361Z,12.20
2023-04-18T20:27:36.289Z,12.20
2023-04-18T20:30:17.705Z,12.20
2023-04-18T20:32:55.645Z,12.20
2023-04-18T20:35:30.904Z,12.20
2023-04-18T20:38:14.796Z,12.10
2023-04-18T20:40:52.922Z,12.10
2023-04-18T20:43:37.719Z,12.10
2023-04-18T20:46:18.951Z,12.00
2023-04-18T20:49:00.935Z,12.00
2023-04-18T20:51:43.197Z,12.00
2023-04-18T20:54:25.011Z,12.00
2023-04-18T20:57:04.172Z,12.00
2023-04-18T20:59:44.735Z,12.00
2023-04-18T21:03:03.052Z,12.00
2023-04-18T21:05:57.175Z,12.00
2023-04-18T21:08:48.338Z,12.00
2023-04-18T21:11:33.048Z,12.00
2023-04-18T21:17:13.048Z,11.90
2023-04-18T21:20:03.899Z,11.90
2023-04-18T21:22:44.902Z,11.90
2023-04-18T21:25:29.240Z,11.80
2023-04-18T21:28:07.158Z,11.80
2023-04-18T21:30:46.691Z,11.80
2023-04-18T21:33:34.017Z,11.80
2023-04-18T21:36:20.389Z,11.80
2023-04-18T21:38:57.743Z,11.70
2023-04-18T21:41:35.812Z,11.70
2023-04-18T21:44:16.064Z,11.70
2023-04-18T21:46:54.965Z,11.70
2023-04-18T21:49:34.637Z,11.60
2023-04-18T21:52:17.873Z,11.60
2023-04-18T21:54:54.707Z,11.60
2023-04-18T21:57:30.790Z,11.60
2023-04-18T22:00:10.348Z,11.50
2023-04-18T22:02:50.948Z,11.60
2023-04-18T22:05:37.627Z,11.50
2023-04-18T22:08:16.075Z,11.50
2023-04-18T22:10:59.610Z,11.50
2023-04-18T22:13:35.539Z,11.40
2023-04-18T22:16:15.159Z,11.40
2023-04-18T22:18:53.651Z,11.40
2023-04-18T22:21:28.823Z,11.40
2023-04-18T22:24:10.873Z,11.40
2023-04-18T22:26:56.704Z,11.30
2023-04-18T22:29:44.467Z,11.30
2023-04-18T22:32:22.202Z,11.30
2023-04-18T22:34:58.667Z,11.30
2023-04-18T22:37:37.112Z,11.30
2023-04-18T22:40:18.869Z,11.30
2023-04-18T22:43:00.971Z,11.30
2023-04-18T22:45:54.529Z,11.20
2023-04-18T22:48:32.391Z,11.20
2023-04-18T22:51:13.987Z,11.20
2023-04-18T22:53:50.666Z,11.10
2023-04-18T22:56:30.461Z,11.10
2023-04-18T22:59:09.084Z,11.00
2023-04-18T23:01:51.536Z,11.10
2023-04-18T23:04:30.447Z,11.10
2023-04-18T23:07:09.999Z,11.00
2023-04-18T23:09:47.858Z,11.00
2023-04-18T23:12:34.667Z,10.90
2023-04-18T23:15:17.127Z,10.90
2023-04-18T23:18:01.644Z,10.90
2023-04-18T23:20:39.868Z,10.90
2023-04-18T23:23:17.658Z,10.80
2023-04-18T23:26:02.130Z,10.80
2023-04-18T23:28:38.352Z,10.80
2023-04-18T23:31:24.093Z,10.70
2023-04-18T23:34:08.645Z,10.70
2023-04-18T23:36:53.937Z,10.70
2023-04-18T23:39:30.746Z,10.60
2023-04-18T23:42:11.252Z,10.60
2023-04-18T23:44:50.431Z,10.60
2023-04-18T23:47:28.204Z,10.60
2023-04-18T23:50:17.477Z,10.60
2023-04-18T23:52:52.633Z,10.60
2023-04-18T23:55:34.857Z,10.50
2023-04-18T23:58:12.129Z,10.50
